createdAt,value
2018-11-23T00:01:18.747Z,99.90
2018-11-23T00:03:59.971Z,99.90
2018-11-23T00:06:41.551Z,99.90
2018-11-23T00:09:23.104Z,99.90
2018-11-23T00:12:04.474Z,99.90
2018-11-23T00:14:45.371Z,99.90
2018-11-23T00:17:26.445Z,99.90
2018-11-23T00:20:07.611Z,99.90
2018-11-23T00:22:48.891Z,99.90
2018-11-23T00:25:30.564Z,99.90
2018-11-23T00:28:12.122Z,99.90
2018-11-23T00:30:53.040Z,99.90
2018-11-23T00:33:34.100Z,99.90
2018-11-23T00:36:15.260Z,99.90
2018-11-23T00:38:57.070Z,99.90
2018-11-23T00:41:38.772Z,99.90
2018-11-23T00:44:20.088Z,99.90
2018-11-23T00:47:01.914Z,99.90
2018-11-23T00:49:43.185Z,99.90
2018-11-23T00:52:24.496Z,99.90
2018-11-23T00:55:05.623Z,99.90
2018-11-23T00:57:46.950Z,99.90
2018-11-23T01:00:34.719Z,99.90
2018-11-23T01:03:16.332Z,99.90
2018-11-23T01:05:57.466Z,99.90
2018-11-23T01:08:38.376Z,99.90
2018-11-23T01:11:19.543Z,99.90
2018-11-23T01:14:00.667Z,99.90
2018-11-23T01:16:42.005Z,99.90
2018-11-23T01:19:23.727Z,99.90
2018-11-23T01:22:05.508Z,99.90
2018-11-23T01:24:46.681Z,99.90
2018-11-23T01:27:27.805Z,99.90
2018-11-23T01:30:09.075Z,99.90
2018-11-23T01:32:50.089Z,99.90
2018-11-23T01:35:31.367Z,99.90
2018-11-23T01:38:12.219Z,99.90
2018-11-23T01:40:53.396Z,99.90
2018-11-23T01:43:34.581Z,99.90
2018-11-23T01:46:15.827Z,99.90
2018-11-23T01:48:56.940Z,99.90
2018-11-23T01:51:37.807Z,99.90
2018-11-23T01:54:19.295Z,99.90
2018-11-23T01:57:00.944Z,99.90
2018-11-23T01:59:42.533Z,99.90
2018-11-23T02:02:23.423Z,99.90
2018-11-23T02:05:05.070Z,99.90
2018-11-23T02:07:46.492Z,99.90
2018-11-23T02:13:11.213Z,99.90
2018-11-23T02:15:52.931Z,99.90
2018-11-23T02:18:33.923Z,99.90
2018-11-23T02:21:14.794Z,99.90
2018-11-23T02:23:55.904Z,99.90
2018-11-23T02:26:36.811Z,99.90
2018-11-23T02:29:18.530Z,99.90
2018-11-23T02:32:00.011Z,99.90
2018-11-23T02:34:41.571Z,99.90
2018-11-23T02:37:22.708Z,99.90
2018-11-23T02:40:03.889Z,99.90
2018-11-23T02:42:45.840Z,99.90
2018-11-23T02:45:27.415Z,99.90
2018-11-23T02:48:08.311Z,99.90
2018-11-23T02:50:50.163Z,99.90
2018-11-23T02:53:31.236Z,99.90
2018-11-23T02:56:12.962Z,99.90
2018-11-23T02:58:53.825Z,99.90
2018-11-23T03:01:35.258Z,99.90
2018-11-23T03:04:16.141Z,99.90
2018-11-23T03:06:57.400Z,99.90
2018-11-23T03:09:38.540Z,99.90
2018-11-23T03:12:19.868Z,99.90
2018-11-23T03:15:00.868Z,99.90
2018-11-23T03:17:42.836Z,99.90
2018-11-23T03:20:24.364Z,99.90
2018-11-23T03:23:05.566Z,99.90
2018-11-23T03:25:47.028Z,99.90
2018-11-23T03:28:28.333Z,99.90
2018-11-23T03:31:12.417Z,99.90
2018-11-23T03:33:51.178Z,99.90
2018-11-23T03:36:32.178Z,99.90
2018-11-23T03:39:13.701Z,99.90
2018-11-23T03:41:54.756Z,99.90
2018-11-23T03:44:35.809Z,99.90
2018-11-23T03:47:17.310Z,99.90
2018-11-23T03:49:58.409Z,99.90
2018-11-23T03:52:40.234Z,99.90
2018-11-23T03:55:21.503Z,99.90
2018-11-23T03:58:03.044Z,99.90
2018-11-23T04:00:43.989Z,99.90
2018-11-23T04:03:25.570Z,99.90
2018-11-23T04:06:06.953Z,99.90
2018-11-23T04:08:48.193Z,99.90
2018-11-23T04:11:28.963Z,99.90
2018-11-23T04:14:10.239Z,99.90
2018-11-23T04:16:51.583Z,99.90
2018-11-23T04:19:32.724Z,99.90
2018-11-23T04:22:14.145Z,99.90
2018-11-23T04:24:55.462Z,99.90
2018-11-23T04:27:36.590Z,99.90
2018-11-23T04:30:18.237Z,99.90
2018-11-23T04:32:59.990Z,99.90
2018-11-23T04:35:41.715Z,99.90
2018-11-23T04:38:23.128Z,99.90
2018-11-23T04:41:04.280Z,99.90
2018-11-23T04:43:45.188Z,99.90
2018-11-23T04:46:26.080Z,99.90
2018-11-23T04:49:07.333Z,99.90
2018-11-23T04:51:48.568Z,99.90
2018-11-23T04:54:29.835Z,99.90
2018-11-23T04:57:11.279Z,99.90
2018-11-23T04:59:52.623Z,99.90
2018-11-23T05:02:33.703Z,99.90
2018-11-23T05:05:15.247Z,99.90
2018-11-23T05:07:56.663Z,99.90
2018-11-23T05:10:37.684Z,99.90
2018-11-23T05:13:18.520Z,99.90
2018-11-23T05:15:59.845Z,99.90
2018-11-23T05:18:40.982Z,99.90
2018-11-23T05:21:22.222Z,99.90
2018-11-23T05:24:03.225Z,99.90
2018-11-23T05:26:45.061Z,99.90
2018-11-23T05:29:25.934Z,99.90
2018-11-23T05:32:07.083Z,99.90
2018-11-23T05:34:48.399Z,99.90
2018-11-23T05:37:29.746Z,99.90
2018-11-23T05:40:11.723Z,99.90
2018-11-23T05:42:52.934Z,99.90
2018-11-23T05:45:34.192Z,99.90
2018-11-23T05:48:15.196Z,99.90
2018-11-23T05:50:56.699Z,99.90
2018-11-23T05:53:38.270Z,99.90
2018-11-23T05:56:20.014Z,99.90
2018-11-23T05:59:01.053Z,99.90
2018-11-23T06:01:42.569Z,99.90
2018-11-23T06:04:23.834Z,99.90
2018-11-23T06:07:04.803Z,99.90
2018-11-23T06:12:29.133Z,99.90
2018-11-23T06:15:10.128Z,99.90
2018-11-23T06:17:51.684Z,99.90
2018-11-23T06:20:33.400Z,99.90
2018-11-23T06:23:14.909Z,99.90
2018-11-23T06:25:56.215Z,99.90
2018-11-23T06:28:37.787Z,99.90
2018-11-23T06:31:21.998Z,99.90
2018-11-23T06:34:26.791Z,99.90
2018-11-23T06:36:55.847Z,99.90
2018-11-23T06:39:24.883Z,99.90
2018-11-23T06:41:54.661Z,99.90
2018-11-23T06:44:29.920Z,99.90
2018-11-23T06:46:59.060Z,99.90
2018-11-23T06:49:28.210Z,99.90
2018-11-23T06:51:57.245Z,99.90
2018-11-23T06:54:26.273Z,99.90
2018-11-23T06:56:55.321Z,99.90
2018-11-23T06:59:25.034Z,99.90
2018-11-23T07:01:54.450Z,99.90
2018-11-23T07:04:23.490Z,99.90
2018-11-23T07:06:53.121Z,99.90
2018-11-23T07:09:22.558Z,99.90
2018-11-23T07:11:51.565Z,99.90
2018-11-23T07:14:21.392Z,99.90
2018-11-23T07:16:51.638Z,99.90
2018-11-23T07:19:20.686Z,99.90
2018-11-23T07:21:50.306Z,99.90
2018-11-23T07:24:19.613Z,99.90
2018-11-23T07:26:48.637Z,99.90
2018-11-23T07:29:17.676Z,99.90
2018-11-23T07:31:47.676Z,99.90
2018-11-23T07:34:16.720Z,99.90
2018-11-23T07:36:45.761Z,99.90
2018-11-23T07:39:26.177Z,99.90
2018-11-23T07:42:13.044Z,99.90
2018-11-23T07:44:42.105Z,99.90
2018-11-23T07:47:11.112Z,99.90
2018-11-23T07:49:40.163Z,99.90
2018-11-23T07:52:09.401Z,99.90
2018-11-23T07:54:38.834Z,99.90
2018-11-23T07:57:09.436Z,99.90
2018-11-23T07:59:38.881Z,99.90
2018-11-23T08:02:09.912Z,99.90
2018-11-23T08:04:40.948Z,99.90
2018-11-23T08:07:11.047Z,99.90
2018-11-23T08:09:40.908Z,99.90
2018-11-23T08:12:10.024Z,99.90
2018-11-23T08:14:39.447Z,99.90
2018-11-23T08:17:08.589Z,99.90
2018-11-23T08:19:37.593Z,99.90
2018-11-23T08:22:06.768Z,99.90
2018-11-23T08:24:35.774Z,99.90
2018-11-23T08:27:04.833Z,99.90
2018-11-23T08:29:33.989Z,99.90
2018-11-23T08:32:03.054Z,99.90
2018-11-23T08:34:32.830Z,99.90
2018-11-23T08:37:01.885Z,99.90
2018-11-23T08:39:32.224Z,99.90
2018-11-23T08:42:01.851Z,99.90
2018-11-23T08:44:30.899Z,99.90
2018-11-23T08:47:00.035Z,99.90
2018-11-23T08:49:29.037Z,99.90
2018-11-23T08:51:58.129Z,99.90
2018-11-23T08:54:27.130Z,99.90
2018-11-23T08:56:56.212Z,99.90
2018-11-23T08:59:25.260Z,99.90
2018-11-23T09:01:54.974Z,99.90
2018-11-23T09:04:23.983Z,99.90
2018-11-23T09:06:53.812Z,99.90
2018-11-23T09:09:22.829Z,99.90
2018-11-23T09:11:51.938Z,99.90
2018-11-23T09:14:21.446Z,99.90
2018-11-23T09:16:50.454Z,99.90
2018-11-23T09:19:19.599Z,99.90
2018-11-23T09:21:48.784Z,99.90
2018-11-23T09:24:17.875Z,99.90
2018-11-23T09:26:46.875Z,99.90
2018-11-23T09:29:16.511Z,99.90
2018-11-23T09:31:45.664Z,99.90
2018-11-23T09:34:15.469Z,99.90
2018-11-23T09:36:44.601Z,99.90
2018-11-23T09:39:13.675Z,99.00
2018-11-23T09:41:42.993Z,97.70
2018-11-23T09:44:12.041Z,96.90
2018-11-23T09:46:41.206Z,96.10
2018-11-23T09:49:10.610Z,95.00
2018-11-23T09:51:39.665Z,94.00
2018-11-23T09:54:08.764Z,92.90
2018-11-23T09:56:37.832Z,92.00
2018-11-23T09:59:06.885Z,91.30
2018-11-23T10:01:35.939Z,89.70
2018-11-23T10:04:05.043Z,87.20
2018-11-23T10:06:34.112Z,85.50
2018-11-23T10:09:03.745Z,85.00
2018-11-23T10:11:33.636Z,84.70
2018-11-23T10:14:02.767Z,84.70
2018-11-23T10:16:31.836Z,85.80
2018-11-23T10:19:01.105Z,86.60
2018-11-23T10:21:30.193Z,86.50
2018-11-23T10:24:00.000Z,85.10
2018-11-23T10:26:29.026Z,85.40
2018-11-23T10:28:58.066Z,87.00
2018-11-23T10:31:27.929Z,86.90
2018-11-23T10:33:57.045Z,85.30
2018-11-23T10:36:26.169Z,84.40
2018-11-23T10:38:55.329Z,83.20
2018-11-23T10:41:24.388Z,81.90
2018-11-23T10:43:53.442Z,81.10
2018-11-23T10:46:22.632Z,81.30
2018-11-23T10:48:51.693Z,79.20
2018-11-23T10:51:20.812Z,77.30
2018-11-23T10:53:49.887Z,77.20
2018-11-23T10:56:18.902Z,77.20
2018-11-23T10:58:47.956Z,76.40
2018-11-23T11:01:22.475Z,75.80
2018-11-23T11:03:57.122Z,74.90
2018-11-23T11:06:31.980Z,74.20
2018-11-23T11:09:01.636Z,73.90
2018-11-23T11:11:30.801Z,73.50
2018-11-23T11:13:59.893Z,73.50
2018-11-23T11:16:28.966Z,72.60
2018-11-23T11:18:58.025Z,72.00
2018-11-23T11:21:27.150Z,72.40
2018-11-23T11:23:56.198Z,72.10
2018-11-23T11:26:25.225Z,71.60
2018-11-23T11:28:54.284Z,71.70
2018-11-23T11:31:23.355Z,70.50
2018-11-23T11:33:52.917Z,70.90
2018-11-23T11:36:22.089Z,71.10
2018-11-23T11:38:51.751Z,70.80
2018-11-23T11:41:20.776Z,70.10
2018-11-23T11:43:49.853Z,70.20
2018-11-23T11:46:19.080Z,70.00
2018-11-23T11:48:48.182Z,69.90
2018-11-23T11:51:17.717Z,70.50
2018-11-23T11:53:48.410Z,70.30
2018-11-23T11:56:17.472Z,70.40
2018-11-23T11:58:47.035Z,70.90
2018-11-23T12:01:16.105Z,71.00
2018-11-23T12:03:45.408Z,70.50
2018-11-23T12:06:15.554Z,70.70
2018-11-23T12:08:44.643Z,70.60
2018-11-23T12:11:13.730Z,70.50
2018-11-23T12:13:43.834Z,71.10
2018-11-23T12:16:12.986Z,70.60
2018-11-23T12:18:42.018Z,70.30
2018-11-23T12:21:11.062Z,71.00
2018-11-23T12:23:40.652Z,73.30
2018-11-23T12:26:09.758Z,76.60
2018-11-23T12:28:38.954Z,80.20
2018-11-23T12:31:08.020Z,83.80
2018-11-23T12:33:37.093Z,88.50
2018-11-23T12:36:06.189Z,91.60
2018-11-23T12:38:35.273Z,93.60
2018-11-23T12:41:05.115Z,95.40
2018-11-23T12:43:34.305Z,97.40
2018-11-23T12:46:03.424Z,99.30
2018-11-23T12:48:33.054Z,99.90
2018-11-23T12:51:02.125Z,99.90
2018-11-23T12:53:31.154Z,99.90
2018-11-23T12:56:00.225Z,99.90
2018-11-23T12:58:29.314Z,99.90
2018-11-23T13:00:58.472Z,99.90
2018-11-23T13:03:27.559Z,99.90
2018-11-23T13:05:57.290Z,99.90
2018-11-23T13:08:26.367Z,99.90
2018-11-23T13:10:55.418Z,99.90
2018-11-23T13:13:24.471Z,99.90
2018-11-23T13:15:54.204Z,99.90
2018-11-23T13:18:23.403Z,99.90
2018-11-23T13:20:52.523Z,99.90
2018-11-23T13:23:21.602Z,99.90
2018-11-23T13:25:51.322Z,99.90
2018-11-23T13:28:20.378Z,99.90
2018-11-23T13:30:49.440Z,99.90
2018-11-23T13:33:18.630Z,99.90
2018-11-23T13:35:47.880Z,99.90
2018-11-23T13:38:16.930Z,99.90
2018-11-23T13:40:46.013Z,99.90
2018-11-23T13:43:15.124Z,99.90
2018-11-23T13:45:44.169Z,99.90
2018-11-23T13:48:19.856Z,99.90
2018-11-23T13:50:43.072Z,99.90
2018-11-23T13:53:12.173Z,99.90
2018-11-23T13:55:41.256Z,99.90
2018-11-23T13:58:10.436Z,99.90
2018-11-23T14:00:39.602Z,99.90
2018-11-23T14:03:08.686Z,99.90
2018-11-23T14:05:37.788Z,99.90
2018-11-23T14:08:07.002Z,99.90
2018-11-23T14:10:36.060Z,99.90
2018-11-23T14:13:11.391Z,99.90
2018-11-23T14:15:34.515Z,99.90
2018-11-23T14:18:03.588Z,99.90
2018-11-23T14:20:33.135Z,99.90
2018-11-23T14:23:02.193Z,99.90
2018-11-23T14:25:32.067Z,99.90
2018-11-23T14:28:01.302Z,99.90
2018-11-23T14:30:32.001Z,99.90
2018-11-23T14:33:02.149Z,99.90
2018-11-23T14:35:32.372Z,99.90
2018-11-23T14:38:02.101Z,99.90
2018-11-23T14:40:31.210Z,99.90
2018-11-23T14:43:00.317Z,99.90
2018-11-23T14:45:31.841Z,99.90
2018-11-23T14:48:02.860Z,99.90
2018-11-23T14:50:33.990Z,99.90
2018-11-23T14:53:03.285Z,99.90
2018-11-23T14:55:32.359Z,99.90
2018-11-23T14:58:01.933Z,99.90
2018-11-23T15:00:34.449Z,99.90
2018-11-23T15:03:04.502Z,99.90
2018-11-23T15:05:33.979Z,99.90
2018-11-23T15:08:03.210Z,99.90
2018-11-23T15:10:33.417Z,99.90
2018-11-23T15:13:03.474Z,99.90
2018-11-23T15:15:34.069Z,99.90
2018-11-23T15:18:03.129Z,99.90
2018-11-23T15:20:33.946Z,99.90
2018-11-23T15:23:07.609Z,99.90
2018-11-23T15:25:36.797Z,99.90
2018-11-23T15:28:06.788Z,99.90
2018-11-23T15:30:38.425Z,99.90
2018-11-23T15:33:08.670Z,99.90
2018-11-23T15:35:38.710Z,99.90
2018-11-23T15:38:10.325Z,99.90
2018-11-23T15:40:38.810Z,99.90
2018-11-23T15:43:09.549Z,99.90
2018-11-23T15:45:39.138Z,99.90
2018-11-23T15:48:09.039Z,99.90
2018-11-23T15:50:39.676Z,99.90
2018-11-23T15:53:10.391Z,99.90
2018-11-23T15:55:40.021Z,99.90
2018-11-23T15:58:10.624Z,99.90
2018-11-23T16:00:40.980Z,99.90
2018-11-23T16:03:11.418Z,99.90
2018-11-23T16:05:40.785Z,99.90
2018-11-23T16:08:14.622Z,99.90
2018-11-23T16:10:43.934Z,99.90
2018-11-23T16:13:13.416Z,99.90
2018-11-23T16:15:43.535Z,99.90
2018-11-23T16:18:13.309Z,99.90
2018-11-23T16:20:44.015Z,99.90
2018-11-23T16:23:14.786Z,99.90
2018-11-23T16:25:44.696Z,99.90
2018-11-23T16:28:14.217Z,99.90
2018-11-23T16:30:45.719Z,99.90
2018-11-23T16:33:16.706Z,99.90
2018-11-23T16:35:45.941Z,99.90
2018-11-23T16:38:16.580Z,99.90
2018-11-23T16:40:47.435Z,99.90
2018-11-23T16:43:16.989Z,99.90
2018-11-23T16:45:46.605Z,99.90
2018-11-23T16:48:16.353Z,99.90
2018-11-23T16:50:46.494Z,99.90
2018-11-23T16:53:15.606Z,99.90
2018-11-23T16:55:44.809Z,99.90
2018-11-23T16:58:14.607Z,99.90
2018-11-23T17:00:45.422Z,99.90
2018-11-23T17:03:16.285Z,99.90
2018-11-23T17:05:48.620Z,99.90
2018-11-23T17:08:17.918Z,99.90
2018-11-23T17:10:47.366Z,99.90
2018-11-23T17:13:16.436Z,99.90
2018-11-23T17:15:47.523Z,99.90
2018-11-23T17:18:16.699Z,99.90
2018-11-23T17:20:46.637Z,99.90
2018-11-23T17:23:15.807Z,99.90
2018-11-23T17:25:45.490Z,99.90
2018-11-23T17:28:14.735Z,99.90
2018-11-23T17:30:44.972Z,99.90
2018-11-23T17:33:15.279Z,99.90
2018-11-23T17:35:45.103Z,99.90
2018-11-23T17:38:14.318Z,99.90
2018-11-23T17:40:43.495Z,99.90
2018-11-23T17:43:12.712Z,99.90
2018-11-23T17:45:41.881Z,99.90
2018-11-23T17:48:11.222Z,99.90
2018-11-23T17:50:40.539Z,99.90
2018-11-23T17:53:10.233Z,99.90
2018-11-23T17:55:39.361Z,99.90
2018-11-23T17:58:08.469Z,99.90
2018-11-23T18:00:39.574Z,99.90
2018-11-23T18:03:07.848Z,99.90
2018-11-23T18:05:37.504Z,99.90
2018-11-23T18:08:06.822Z,99.90
2018-11-23T18:10:36.933Z,99.90
2018-11-23T18:13:06.242Z,99.90
2018-11-23T18:15:35.965Z,99.90
2018-11-23T18:18:06.320Z,99.90
2018-11-23T18:20:35.861Z,99.90
2018-11-23T18:23:05.904Z,99.90
2018-11-23T18:25:38.367Z,99.90
2018-11-23T18:28:07.576Z,99.90
2018-11-23T18:30:37.340Z,99.90
2018-11-23T18:33:07.941Z,99.90
2018-11-23T18:35:37.243Z,99.90
2018-11-23T18:38:06.463Z,99.90
2018-11-23T18:40:37.325Z,99.90
2018-11-23T18:43:05.924Z,99.90
2018-11-23T18:45:35.037Z,99.90
2018-11-23T18:48:04.185Z,99.90
2018-11-23T18:50:33.313Z,99.90
2018-11-23T18:53:03.173Z,99.90
2018-11-23T18:55:33.830Z,99.90
2018-11-23T18:58:03.001Z,99.90
2018-11-23T19:00:32.336Z,99.90
2018-11-23T19:03:01.535Z,99.90
2018-11-23T19:05:30.735Z,99.90
2018-11-23T19:08:00.323Z,99.90
2018-11-23T19:10:29.703Z,99.90
2018-11-23T19:12:59.014Z,99.90
2018-11-23T19:15:28.154Z,99.90
2018-11-23T19:17:57.441Z,99.90
2018-11-23T19:20:26.690Z,99.90
2018-11-23T19:22:55.995Z,99.90
2018-11-23T19:25:25.774Z,99.90
2018-11-23T19:27:54.924Z,99.90
2018-11-23T19:30:28.589Z,99.90
2018-11-23T19:32:54.201Z,99.90
2018-11-23T19:35:23.351Z,99.90
2018-11-23T19:37:55.287Z,99.90
2018-11-23T19:40:24.322Z,99.90
2018-11-23T19:42:53.534Z,99.90
2018-11-23T19:45:23.150Z,99.90
2018-11-23T19:47:52.831Z,99.90
2018-11-23T19:50:21.890Z,99.90
2018-11-23T19:52:51.513Z,99.90
2018-11-23T19:55:21.382Z,99.90
2018-11-23T19:57:50.462Z,99.90
2018-11-23T20:00:22.862Z,99.90
2018-11-23T20:02:52.009Z,99.90
2018-11-23T20:05:21.332Z,99.90
2018-11-23T20:07:52.963Z,99.90
2018-11-23T20:10:22.878Z,99.90
2018-11-23T20:12:53.704Z,99.90
2018-11-23T20:15:23.009Z,99.90
2018-11-23T20:17:52.599Z,99.90
2018-11-23T20:20:22.082Z,99.90
2018-11-23T20:22:51.505Z,99.90
2018-11-23T20:25:22.412Z,99.90
2018-11-23T20:27:52.611Z,99.90
2018-11-23T20:30:23.115Z,99.90
2018-11-23T20:32:52.763Z,99.90
2018-11-23T20:35:23.002Z,99.90
2018-11-23T20:37:53.521Z,99.90
2018-11-23T20:40:23.506Z,99.90
2018-11-23T20:42:53.413Z,99.90
2018-11-23T20:45:22.539Z,99.90
2018-11-23T20:47:51.680Z,99.90
2018-11-23T20:50:20.742Z,99.90
2018-11-23T20:52:50.571Z,99.90
2018-11-23T20:55:21.967Z,99.90
2018-11-23T20:57:51.974Z,99.90
2018-11-23T21:00:22.227Z,99.90
2018-11-23T21:02:52.660Z,99.90
2018-11-23T21:05:22.531Z,99.90
2018-11-23T21:07:51.994Z,99.90
2018-11-23T21:10:23.319Z,99.90
2018-11-23T21:12:53.312Z,99.90
2018-11-23T21:15:26.467Z,99.90
2018-11-23T21:17:56.325Z,99.90
2018-11-23T21:20:25.525Z,99.90
2018-11-23T21:22:55.368Z,99.90
2018-11-23T21:25:24.430Z,99.90
2018-11-23T21:27:53.562Z,99.90
2018-11-23T21:30:23.641Z,99.90
2018-11-23T21:32:54.046Z,99.90
2018-11-23T21:35:24.384Z,99.90
2018-11-23T21:37:54.003Z,99.90
2018-11-23T21:40:23.136Z,99.90
2018-11-23T21:42:52.248Z,99.90
2018-11-23T21:45:21.422Z,99.90
2018-11-23T21:47:51.827Z,99.90
2018-11-23T21:50:25.465Z,99.90
2018-11-23T21:52:50.752Z,99.90
2018-11-23T21:55:24.712Z,99.90
2018-11-23T21:57:55.182Z,99.90
2018-11-23T22:00:24.230Z,99.90
2018-11-23T22:02:53.308Z,99.90
2018-11-23T22:05:22.449Z,99.90
2018-11-23T22:07:53.362Z,99.90
2018-11-23T22:10:22.471Z,99.90
2018-11-23T22:12:52.549Z,99.90
2018-11-23T22:15:22.833Z,99.90
2018-11-23T22:17:53.140Z,99.90
2018-11-23T22:20:23.463Z,99.90
2018-11-23T22:22:52.657Z,99.90
2018-11-23T22:25:22.941Z,99.90
2018-11-23T22:27:52.019Z,99.90
2018-11-23T22:30:28.373Z,99.90
2018-11-23T22:32:57.817Z,99.90
2018-11-23T22:35:27.814Z,99.90
2018-11-23T22:37:56.988Z,99.90
2018-11-23T22:40:26.104Z,99.90
2018-11-23T22:42:56.641Z,99.90
2018-11-23T22:45:26.537Z,99.90
2018-11-23T22:47:55.631Z,99.90
2018-11-23T22:50:25.108Z,99.90
2018-11-23T22:52:55.302Z,99.90
2018-11-23T22:55:25.894Z,99.90
2018-11-23T22:57:54.936Z,99.90
2018-11-23T23:00:31.425Z,99.90
2018-11-23T23:03:00.490Z,99.90
2018-11-23T23:05:29.561Z,99.90
2018-11-23T23:07:58.606Z,99.90
2018-11-23T23:10:27.669Z,99.90
2018-11-23T23:12:56.785Z,99.90
2018-11-23T23:15:25.816Z,99.90
2018-11-23T23:17:55.573Z,99.90
2018-11-23T23:20:24.706Z,99.90
2018-11-23T23:22:53.832Z,99.90
2018-11-23T23:25:22.910Z,99.90
2018-11-23T23:27:52.193Z,99.90
2018-11-23T23:30:21.313Z,99.90
2018-11-23T23:32:50.352Z,99.90
2018-11-23T23:35:19.446Z,99.90
2018-11-23T23:37:48.536Z,99.90
2018-11-23T23:40:18.345Z,99.90
2018-11-23T23:42:47.964Z,99.90
2018-11-23T23:45:18.041Z,99.90
2018-11-23T23:47:47.243Z,99.90
2018-11-23T23:50:19.926Z,99.90
2018-11-23T23:52:49.597Z,99.90
2018-11-23T23:55:18.769Z,99.90
2018-11-23T23:57:48.229Z,99.90
